Time;durP1;ratioP1;P1;durP2;ratioP2;P2;SDS_P1;SDS_P2;PMS_P1;PMS_P2;Temp;Humidity;BMP_temperature;BMP_pressure;BME280_temperature;BME280_humidity;BME280_pressure;Samples;Min_cycle;Max_cycle;Signal;HPM_P1;HPM_P2
2021/09/10 00:03:02;;;;;;;18.13;11.50;;;14.60;99.90;;;;;;4426994;32;20192;-69
2021/09/10 00:05:42;;;;;;;20.90;12.30;;;14.50;99.90;;;;;;4425280;32;20131;-67
2021/09/10 00:08:44;;;;;;;20.60;12.27;;;14.50;99.90;;;;;;4425232;32;20220;-68
2021/09/10 00:11:57;;;;;;;21.80;12.13;;;14.40;99.90;;;;;;4424776;32;20146;-67
2021/09/10 00:14:51;;;;;;;20.47;12.07;;;14.30;99.90;;;;;;4424803;32;20287;-67
2021/09/10 00:17:21;;;;;;;24.03;12.43;;;14.30;99.90;;;;;;4424218;32;20206;-68
2021/09/10 00:20:07;;;;;;;21.77;12.40;;;14.10;99.90;;;;;;4409817;32;20206;-68
2021/09/10 00:22:53;;;;;;;21.47;12.07;;;14.20;99.90;;;;;;4409994;32;20162;-68
2021/09/10 00:25:38;;;;;;;21.93;12.60;;;14.20;99.90;;;;;;4409439;32;20142;-67
2021/09/10 00:28:06;;;;;;;19.50;11.87;;;14.10;99.90;;;;;;4411514;32;20179;-67
2021/09/10 00:30:33;;;;;;;19.53;11.83;;;14.10;99.90;;;;;;4411573;32;20127;-68
2021/09/10 00:33:00;;;;;;;21.27;12.43;;;14.10;99.90;;;;;;4409642;32;20155;-67
2021/09/10 00:35:26;;;;;;;21.17;12.33;;;14.00;99.90;;;;;;4410136;32;20150;-68
2021/09/10 00:37:53;;;;;;;20.37;12.50;;;14.00;99.90;;;;;;4410886;32;20422;-68
2021/09/10 00:40:20;;;;;;;21.20;12.40;;;14.00;99.90;;;;;;4411208;32;20127;-68
2021/09/10 00:42:47;;;;;;;23.93;12.77;;;14.00;99.90;;;;;;4409591;32;20218;-67
2021/09/10 00:45:19;;;;;;;22.57;12.87;;;13.90;99.90;;;;;;4410611;32;20445;-67
2021/09/10 00:47:49;;;;;;;21.07;12.80;;;13.90;99.90;;;;;;4409532;32;20200;-67
2021/09/10 00:50:16;;;;;;;18.77;12.03;;;13.80;99.90;;;;;;4409635;32;20392;-67
2021/09/10 00:52:43;;;;;;;20.17;12.00;;;13.80;99.90;;;;;;4411195;32;20142;-67
2021/09/10 00:55:10;;;;;;;20.13;12.67;;;13.70;99.90;;;;;;4410342;32;20204;-68
2021/09/10 00:57:37;;;;;;;20.53;12.67;;;13.60;99.90;;;;;;4409259;32;20154;-67
2021/09/10 01:00:04;;;;;;;23.57;12.87;;;13.60;99.90;;;;;;4409003;32;20185;-67
2021/09/10 01:02:32;;;;;;;20.70;12.83;;;13.60;99.90;;;;;;4409962;32;20184;-68
2021/09/10 01:04:59;;;;;;;21.73;13.13;;;13.60;99.90;;;;;;4411065;32;20170;-68
2021/09/10 01:07:26;;;;;;;21.13;12.73;;;13.50;99.90;;;;;;4421736;32;20429;-69
2021/09/10 01:09:55;;;;;;;22.73;12.57;;;13.50;99.90;;;;;;4424856;32;20184;-69
2021/09/10 01:12:22;;;;;;;23.00;12.63;;;13.50;99.90;;;;;;4425658;32;20222;-69
2021/09/10 01:14:50;;;;;;;24.53;13.57;;;13.40;99.90;;;;;;4425563;32;20256;-69
2021/09/10 01:17:19;;;;;;;22.77;13.13;;;13.40;99.90;;;;;;4423992;32;20219;-70
2021/09/10 01:19:48;;;;;;;21.03;13.40;;;13.30;99.90;;;;;;4424032;32;20514;-69
2021/09/10 01:22:17;;;;;;;23.90;12.83;;;13.30;99.90;;;;;;4423777;32;20155;-69
2021/09/10 01:25:11;;;;;;;25.53;14.07;;;13.30;99.90;;;;;;4423843;32;20545;-69
2021/09/10 01:28:04;;;;;;;25.50;13.60;;;13.20;99.90;;;;;;4425824;32;20143;-70
2021/09/10 01:30:59;;;;;;;22.80;13.57;;;13.20;99.90;;;;;;4424190;32;20188;-69
2021/09/10 01:33:38;;;;;;;22.20;13.53;;;13.10;99.90;;;;;;4424963;32;20151;-70
2021/09/10 01:36:39;;;;;;;21.97;14.10;;;13.00;99.90;;;;;;4423234;32;20160;-69
2021/09/10 01:39:05;;;;;;;22.50;12.93;;;13.00;99.90;;;;;;4423901;32;20154;-69
2021/09/10 01:41:32;;;;;;;22.60;13.40;;;12.90;99.90;;;;;;4423401;32;20135;-69
2021/09/10 01:43:59;;;;;;;22.00;13.83;;;13.00;99.90;;;;;;4425024;32;20207;-70
2021/09/10 01:46:26;;;;;;;22.87;13.83;;;13.00;99.90;;;;;;4425302;32;20195;-69
2021/09/10 01:48:53;;;;;;;23.37;13.37;;;12.90;99.90;;;;;;4423297;32;20203;-69
2021/09/10 01:51:31;;;;;;;20.87;12.77;;;12.90;99.90;;;;;;4424113;32;20133;-69
2021/09/10 01:53:59;;;;;;;21.90;13.53;;;12.90;99.90;;;;;;4425325;32;20139;-69
2021/09/10 01:56:29;;;;;;;23.97;13.43;;;12.90;99.90;;;;;;4424950;32;20154;-69
2021/09/10 01:58:56;;;;;;;23.27;13.23;;;12.80;99.90;;;;;;4423428;32;20132;-70
2021/09/10 02:01:31;;;;;;;22.87;13.63;;;12.80;99.90;;;;;;4424332;32;20138;-69
2021/09/10 02:03:59;;;;;;;22.73;13.40;;;12.80;99.90;;;;;;4424460;32;20192;-69
2021/09/10 02:06:26;;;;;;;21.47;13.73;;;12.80;99.90;;;;;;4424985;32;20182;-69
2021/09/10 02:08:53;;;;;;;21.33;13.20;;;12.80;99.90;;;;;;4423338;32;20213;-70
2021/09/10 02:11:20;;;;;;;22.07;14.17;;;12.80;99.90;;;;;;4423379;32;20163;-70
2021/09/10 02:13:47;;;;;;;22.97;13.20;;;12.80;99.90;;;;;;4425115;32;20138;-70
2021/09/10 02:16:14;;;;;;;22.10;13.33;;;12.70;99.90;;;;;;4425405;32;20336;-71
2021/09/10 02:18:41;;;;;;;23.60;13.63;;;12.70;99.90;;;;;;4423766;32;20179;-68
2021/09/10 02:21:08;;;;;;;24.33;13.20;;;12.70;99.90;;;;;;4425207;32;20131;-69
2021/09/10 02:23:36;;;;;;;21.10;13.57;;;12.70;99.90;;;;;;4423259;32;20404;-70
2021/09/10 02:26:03;;;;;;;22.00;13.50;;;12.70;99.90;;;;;;4423408;32;20180;-70
2021/09/10 02:28:30;;;;;;;22.07;13.37;;;12.60;99.90;;;;;;4423340;32;20510;-70
2021/09/10 02:30:58;;;;;;;24.50;14.30;;;12.60;99.90;;;;;;4423484;32;20440;-70
2021/09/10 02:33:25;;;;;;;24.27;13.83;;;12.50;99.90;;;;;;4425087;32;20135;-70
2021/09/10 02:35:51;;;;;;;23.83;14.60;;;12.50;99.90;;;;;;4423543;32;20143;-70
2021/09/10 02:38:18;;;;;;;24.30;14.00;;;12.50;99.90;;;;;;4424546;32;20220;-70
2021/09/10 02:40:45;;;;;;;25.63;14.93;;;12.50;99.90;;;;;;4423183;32;20189;-70
2021/09/10 02:43:12;;;;;;;28.63;15.50;;;12.50;99.90;;;;;;4425052;32;20135;-70
2021/09/10 02:45:38;;;;;;;26.87;15.13;;;12.40;99.90;;;;;;4423325;32;20166;-70
2021/09/10 02:48:05;;;;;;;24.13;14.27;;;12.40;99.90;;;;;;4424676;32;20131;-69
2021/09/10 02:50:33;;;;;;;24.77;14.67;;;12.30;99.90;;;;;;4425110;32;20131;-70
2021/09/10 02:53:00;;;;;;;24.40;14.20;;;12.30;99.90;;;;;;4424911;32;20475;-69
2021/09/10 02:55:27;;;;;;;25.37;14.67;;;12.20;99.90;;;;;;4424526;32;20135;-70
2021/09/10 02:57:53;;;;;;;24.73;14.43;;;12.20;99.90;;;;;;4422998;32;20151;-69
2021/09/10 03:00:21;;;;;;;23.00;13.77;;;12.20;99.90;;;;;;4423981;32;20147;-69
2021/09/10 03:02:47;;;;;;;24.47;13.67;;;12.10;99.90;;;;;;4424364;32;20143;-69
2021/09/10 03:05:15;;;;;;;24.47;14.10;;;12.10;99.90;;;;;;4422422;32;20143;-70
2021/09/10 03:07:41;;;;;;;24.67;14.63;;;12.00;99.90;;;;;;4424786;32;20577;-70
2021/09/10 03:10:09;;;;;;;23.00;14.17;;;12.00;99.90;;;;;;4426493;32;20127;-69
2021/09/10 03:12:37;;;;;;;24.07;14.07;;;12.00;99.90;;;;;;4427909;32;20195;-70
2021/09/10 03:15:05;;;;;;;22.97;14.47;;;11.90;99.90;;;;;;4425717;32;20468;-69
2021/09/10 03:17:32;;;;;;;26.40;14.43;;;11.80;99.90;;;;;;4427758;32;20161;-70
2021/09/10 03:19:59;;;;;;;25.17;14.23;;;11.80;99.90;;;;;;4427700;32;20159;-70
2021/09/10 03:22:26;;;;;;;27.90;14.33;;;11.80;99.90;;;;;;4426913;32;20135;-70
2021/09/10 03:24:53;;;;;;;22.93;14.87;;;11.70;99.90;;;;;;4426112;32;20181;-69
2021/09/10 03:27:20;;;;;;;24.03;14.27;;;11.70;99.90;;;;;;4425804;32;20521;-69
2021/09/10 03:29:46;;;;;;;24.07;14.30;;;11.70;99.90;;;;;;4427425;32;20147;-69
2021/09/10 03:32:13;;;;;;;24.50;15.07;;;11.60;99.90;;;;;;4426883;32;20199;-70
2021/09/10 03:34:43;;;;;;;26.50;14.37;;;11.60;99.90;;;;;;4425594;32;20134;-70
2021/09/10 03:37:11;;;;;;;23.90;14.53;;;11.60;99.90;;;;;;4427520;32;20132;-70
2021/09/10 03:39:40;;;;;;;24.80;14.93;;;11.60;99.90;;;;;;4425369;32;20186;-70
2021/09/10 03:42:07;;;;;;;25.63;14.77;;;11.60;99.90;;;;;;4426430;32;20413;-70
2021/09/10 03:44:36;;;;;;;23.80;14.27;;;11.60;99.90;;;;;;4427357;32;20234;-70
2021/09/10 03:47:06;;;;;;;22.30;14.23;;;11.60;99.90;;;;;;4425623;32;20218;-70
2021/09/10 03:49:44;;;;;;;27.00;15.10;;;11.60;99.90;;;;;;4425244;32;20193;-70
2021/09/10 03:52:19;;;;;;;26.53;15.50;;;11.60;99.90;;;;;;4425616;32;20230;-70
2021/09/10 03:54:46;;;;;;;24.03;14.47;;;11.60;99.90;;;;;;4425479;32;20192;-69
2021/09/10 03:57:16;;;;;;;25.07;14.73;;;11.50;99.90;;;;;;4425676;32;20364;-69
2021/09/10 03:59:48;;;;;;;23.13;14.17;;;11.60;99.90;;;;;;4425570;32;20411;-70
2021/09/10 04:02:26;;;;;;;24.93;15.40;;;11.50;99.90;;;;;;4425108;32;20652;-70
2021/09/10 04:04:58;;;;;;;25.40;14.57;;;11.50;99.90;;;;;;4425220;32;20387;-70
2021/09/10 04:07:36;;;;;;;25.33;13.97;;;11.50;99.90;;;;;;4425342;32;20144;-70
2021/09/10 04:10:32;;;;;;;27.10;15.03;;;11.50;99.90;;;;;;4425776;32;20150;-71
2021/09/10 04:13:37;;;;;;;26.20;15.00;;;11.50;99.90;;;;;;4424913;32;20142;-70
2021/09/10 04:16:23;;;;;;;23.30;14.30;;;11.50;99.90;;;;;;4423647;32;20194;-70
2021/09/10 04:22:15;;;;;;;26.30;14.63;;;11.50;99.90;;;;;;4392006;32;20187;-69
2021/09/10 04:25:20;;;;;;;26.13;14.57;;;11.40;99.90;;;;;;4390941;32;20163;-70
2021/09/10 04:28:27;;;;;;;23.57;14.30;;;11.50;99.90;;;;;;4389443;32;20488;-70
2021/09/10 04:31:44;;;;;;;24.87;14.77;;;11.50;99.90;;;;;;4390240;32;20183;-70
2021/09/10 04:34:25;;;;;;;28.80;15.83;;;11.50;99.90;;;;;;4392169;32;20245;-70
2021/09/10 04:37:18;;;;;;;25.73;14.83;;;11.50;99.90;;;;;;4391770;32;20147;-70
2021/09/10 04:40:09;;;;;;;24.37;15.33;;;11.50;99.90;;;;;;4332180;33;20223;-70
2021/09/10 04:42:47;;;;;;;24.43;15.00;;;11.50;99.90;;;;;;4332807;33;20550;-70
2021/09/10 04:45:50;;;;;;;26.60;15.53;;;11.50;99.90;;;;;;4332808;33;20178;-69
2021/09/10 04:49:17;;;;;;;24.30;15.40;;;11.60;99.90;;;;;;4332093;33;20239;-69
2021/09/10 04:52:22;;;;;;;27.93;15.90;;;11.60;99.90;;;;;;4317536;33;20149;-69
2021/09/10 04:55:17;;;;;;;24.43;14.63;;;11.70;99.90;;;;;;4317441;33;20232;-70
2021/09/10 04:58:28;;;;;;;21.83;14.40;;;11.90;99.90;;;;;;4328657;33;20191;-70
2021/09/10 05:01:12;;;;;;;24.60;14.17;;;11.90;99.90;;;;;;4332555;33;20129;-71
2021/09/10 05:03:48;;;;;;;24.47;14.43;;;12.10;99.90;;;;;;4333363;33;20148;-70
2021/09/10 05:06:37;;;;;;;22.97;14.53;;;12.20;99.90;;;;;;4332241;33;20156;-70
2021/09/10 05:09:13;;;;;;;25.83;14.23;;;12.30;99.90;;;;;;4332563;33;20165;-71
2021/09/10 05:11:59;;;;;;;27.53;15.00;;;12.40;99.90;;;;;;4332694;33;20438;-71
2021/09/10 05:15:13;;;;;;;24.57;13.53;;;12.50;99.90;;;;;;4331854;33;20156;-71
2021/09/10 05:18:03;;;;;;;25.63;13.40;;;12.60;99.90;;;;;;4313106;33;20162;-71
2021/09/10 05:21:00;;;;;;;23.43;13.67;;;12.70;99.90;;;;;;4318722;33;20195;-71
2021/09/10 05:23:45;;;;;;;22.53;12.50;;;12.90;99.90;;;;;;4317210;33;20561;-71
2021/09/10 05:26:30;;;;;;;22.87;12.30;;;12.90;99.90;;;;;;4302854;33;20188;-71
2021/09/10 05:29:31;;;;;;;21.90;12.93;;;13.10;99.90;;;;;;4315750;33;20213;-71
2021/09/10 05:32:08;;;;;;;22.13;12.20;;;13.20;99.90;;;;;;4316074;33;20171;-71
2021/09/10 05:34:37;;;;;;;23.07;12.47;;;13.30;99.90;;;;;;4316455;33;20199;-71
2021/09/10 05:37:21;;;;;;;23.73;13.00;;;13.40;99.90;;;;;;4317723;33;20219;-71
2021/09/10 05:40:06;;;;;;;24.43;12.37;;;13.50;99.90;;;;;;4317545;33;20188;-71
2021/09/10 05:42:55;;;;;;;20.97;12.27;;;13.60;99.90;;;;;;4317081;33;20436;-71
2021/09/10 05:45:40;;;;;;;22.30;11.47;;;13.70;99.90;;;;;;4317304;33;20154;-71
2021/09/10 05:51:44;;;;;;;18.70;11.93;;;13.90;99.90;;;;;;4261705;33;20227;-72
2021/09/10 05:54:28;;;;;;;21.17;11.43;;;14.00;99.90;;;;;;4262817;33;20241;-71
2021/09/10 05:57:16;;;;;;;20.47;11.50;;;14.10;99.90;;;;;;4275876;33;20436;-71
2021/09/10 05:59:54;;;;;;;19.73;11.57;;;14.20;99.90;;;;;;4259925;33;20485;-71
2021/09/10 06:02:29;;;;;;;20.20;11.17;;;14.30;99.90;;;;;;4247847;33;20214;-71
2021/09/10 06:05:11;;;;;;;18.37;11.30;;;14.40;99.90;;;;;;4262344;33;20158;-71
2021/09/10 06:07:55;;;;;;;20.20;11.57;;;14.50;99.90;;;;;;4346120;33;20175;-71
2021/09/10 06:10:59;;;;;;;19.40;11.83;;;14.60;99.90;;;;;;4347652;33;20155;-71
2021/09/10 06:13:47;;;;;;;19.37;11.17;;;14.70;99.90;;;;;;4347833;33;20160;-72
2021/09/10 06:16:35;;;;;;;19.07;11.30;;;14.80;99.90;;;;;;4346064;33;20187;-71
2021/09/10 06:19:31;;;;;;;18.53;10.77;;;14.90;99.90;;;;;;4346292;33;20149;-71
2021/09/10 06:22:37;;;;;;;22.00;11.10;;;15.00;99.90;;;;;;4348539;33;20148;-72
2021/09/10 06:25:26;;;;;;;21.17;10.90;;;15.10;99.90;;;;;;4346407;33;20137;-71
2021/09/10 06:28:08;;;;;;;21.00;10.70;;;15.20;99.90;;;;;;4363557;32;20453;-71
2021/09/10 06:31:14;;;;;;;17.03;11.10;;;15.30;99.90;;;;;;4406395;32;20175;-71
2021/09/10 06:34:00;;;;;;;17.00;10.80;;;15.40;99.90;;;;;;4407216;32;20146;-70
2021/09/10 06:36:53;;;;;;;20.83;10.47;;;15.50;99.90;;;;;;4400135;32;20220;-70
2021/09/10 06:39:28;;;;;;;18.20;10.53;;;15.70;99.90;;;;;;4422490;32;20163;-70
2021/09/10 06:45:22;;;;;;;16.63;9.67;;;15.80;99.90;;;;;;4392970;32;20568;-70
2021/09/10 06:51:30;;;;;;;19.87;9.73;;;16.00;99.90;;;;;;4363666;32;20168;-71
2021/09/10 06:54:05;;;;;;;16.83;9.33;;;16.10;99.90;;;;;;4364281;32;20148;-71
2021/09/10 06:56:47;;;;;;;21.50;9.83;;;16.40;99.90;;;;;;4364346;32;20156;-71
2021/09/10 06:59:29;;;;;;;16.07;8.80;;;16.50;99.90;;;;;;4363644;32;20152;-71
2021/09/10 07:02:09;;;;;;;15.97;9.00;;;16.50;99.90;;;;;;4364106;32;20542;-71
2021/09/10 07:04:55;;;;;;;14.33;8.30;;;16.70;99.90;;;;;;4364846;32;20653;-71
2021/09/10 07:07:35;;;;;;;15.13;8.57;;;16.80;99.90;;;;;;4364923;32;20501;-70
2021/09/10 07:10:14;;;;;;;17.30;8.57;;;16.90;99.90;;;;;;4363191;32;20451;-70
2021/09/10 07:13:01;;;;;;;14.60;8.23;;;17.00;99.90;;;;;;4361314;32;20192;-68
2021/09/10 07:15:37;;;;;;;17.63;8.57;;;17.10;99.90;;;;;;4363735;32;20474;-69
2021/09/10 07:18:24;;;;;;;14.33;8.23;;;17.20;99.90;;;;;;4363964;32;20140;-69
2021/09/10 07:21:05;;;;;;;14.17;8.27;;;17.30;99.90;;;;;;4377480;32;20158;-69
2021/09/10 07:23:49;;;;;;;;;;;;;;;;;;;;;
2021/09/10 07:26:31;;;;;;;13.57;8.10;;;17.50;99.90;;;;;;4422565;32;20290;-69
2021/09/10 07:29:19;;;;;;;15.90;8.60;;;17.60;99.90;;;;;;4422390;32;20154;-68
2021/09/10 07:32:03;;;;;;;13.57;7.90;;;17.70;99.90;;;;;;4393650;32;20289;-68
2021/09/10 07:34:44;;;;;;;16.57;7.57;;;17.80;99.90;;;;;;4394244;32;20548;-68
2021/09/10 07:37:29;;;;;;;13.93;7.60;;;17.90;99.90;;;;;;4393342;32;20140;-69
2021/09/10 07:40:23;;;;;;;17.13;7.70;;;18.00;99.90;;;;;;4392972;32;20259;-69
2021/09/10 07:46:23;;;;;;;20.07;7.87;;;18.20;99.90;;;;;;4393161;32;20341;-68
2021/09/10 07:49:01;;;;;;;17.43;7.83;;;18.30;99.90;;;;;;4392474;32;20198;-68
2021/09/10 07:51:42;;;;;;;16.43;7.53;;;18.40;99.90;;;;;;4394180;32;20132;-68
2021/09/10 07:54:33;;;;;;;12.63;7.40;;;18.50;99.90;;;;;;4393974;32;20136;-68
2021/09/10 07:57:08;;;;;;;13.33;7.50;;;18.50;99.90;;;;;;4392590;32;20194;-69
2021/09/10 07:59:47;;;;;;;15.00;8.00;;;18.60;99.90;;;;;;4393338;32;20422;-69
2021/09/10 08:02:26;;;;;;;14.03;7.40;;;18.70;99.90;;;;;;4393134;32;20488;-68
2021/09/10 08:05:30;;;;;;;13.80;7.10;;;18.70;99.90;;;;;;4392535;32;20236;-67
2021/09/10 08:08:17;;;;;;;11.60;7.00;;;18.90;99.90;;;;;;4377524;32;20214;-69
2021/09/10 08:11:05;;;;;;;13.40;7.33;;;19.10;99.90;;;;;;4410580;32;20469;-69
2021/09/10 08:13:41;;;;;;;15.60;7.17;;;19.30;99.90;;;;;;4409991;32;20453;-69
2021/09/10 08:16:29;;;;;;;;;;;;;;;;;;;;;
2021/09/10 08:19:05;;;;;;;13.40;6.73;;;19.50;99.90;;;;;;4410875;32;20152;-70
2021/09/10 08:21:48;;;;;;;14.77;7.20;;;19.60;99.90;;;;;;4408990;32;20143;-69
2021/09/10 08:24:21;;;;;;;12.27;6.77;;;19.80;99.90;;;;;;4408796;32;20131;-69
2021/09/10 08:27:01;;;;;;;14.40;6.70;;;20.10;99.90;;;;;;4410203;32;20175;-70
2021/09/10 08:30:02;;;;;;;11.90;6.60;;;20.80;99.90;;;;;;4408811;32;20258;-69
2021/09/10 08:32:49;;;;;;;15.40;7.50;;;21.70;99.90;;;;;;4410486;32;20159;-71
2021/09/10 08:35:25;;;;;;;12.40;6.97;;;22.20;99.90;;;;;;4408814;32;20508;-70
2021/09/10 08:38:15;;;;;;;16.10;7.17;;;22.60;99.90;;;;;;4410296;32;20152;-69
2021/09/10 08:41:19;;;;;;;11.70;6.80;;;23.20;99.90;;;;;;4410408;32;20190;-69
2021/09/10 08:44:14;;;;;;;10.85;6.78;;;23.70;99.90;;;;;;4407840;32;20171;-69
2021/09/10 08:47:35;;;;;;;12.25;6.68;;;24.00;99.90;;;;;;4409440;32;20244;-69
2021/09/10 08:50:21;;;;;;;11.32;7.30;;;24.50;99.90;;;;;;4408764;32;20151;-68
2021/09/10 08:53:16;;;;;;;11.70;7.43;;;24.90;99.90;;;;;;4409900;32;20147;-68
2021/09/10 08:56:08;;;;;;;11.77;6.60;;;25.00;99.90;;;;;;4408986;32;20475;-69
2021/09/10 08:59:11;;;;;;;12.60;6.85;;;25.40;99.90;;;;;;4409914;32;20163;-69
2021/09/10 09:02:06;;;;;;;12.93;6.95;;;25.90;99.90;;;;;;4408677;32;20143;-68
2021/09/10 09:07:43;;;;;;;11.93;6.65;;;26.40;95.80;;;;;;4375335;32;20164;-68
2021/09/10 09:10:37;;;;;;;11.05;7.07;;;26.60;94.50;;;;;;4378546;32;20139;-70
2021/09/10 09:13:31;;;;;;;13.38;7.28;;;26.80;93.30;;;;;;4376778;32;20222;-71
2021/09/10 09:16:31;;;;;;;12.25;6.68;;;27.10;92.30;;;;;;4375440;32;20425;-70
2021/09/10 09:19:06;;;;;;;9.75;6.90;;;27.20;92.90;;;;;;4377755;32;20140;-70
2021/09/10 09:21:57;;;;;;;16.27;6.65;;;27.80;92.30;;;;;;4377731;32;20436;-71
2021/09/10 09:24:38;;;;;;;15.50;6.93;;;28.40;90.60;;;;;;4376621;32;20186;-71
2021/09/10 09:27:18;;;;;;;10.85;6.95;;;28.80;88.10;;;;;;4377589;32;20486;-68
2021/09/10 09:30:02;;;;;;;14.18;6.87;;;29.10;86.20;;;;;;4370229;32;20360;-69
2021/09/10 09:32:52;;;;;;;11.35;6.28;;;29.50;84.10;;;;;;4376142;32;20148;-69
2021/09/10 09:35:39;;;;;;;15.18;6.37;;;29.40;78.10;;;;;;4376593;32;20522;-69
2021/09/10 09:38:30;;;;;;;11.38;6.53;;;29.70;77.80;;;;;;4376144;32;20152;-69
2021/09/10 09:41:10;;;;;;;12.82;6.45;;;29.80;77.10;;;;;;4376268;32;20194;-69
2021/09/10 09:44:13;;;;;;;10.35;6.70;;;30.00;75.00;;;;;;4384694;32;20146;-68
2021/09/10 09:47:08;;;;;;;10.90;6.12;;;29.80;72.40;;;;;;4423632;32;20123;-68
2021/09/10 09:50:13;;;;;;;9.40;5.75;;;30.10;73.90;;;;;;4422841;32;20180;-68
2021/09/10 09:53:18;;;;;;;9.68;6.18;;;30.60;70.40;;;;;;4425539;32;20188;-69
2021/09/10 09:55:54;;;;;;;11.20;5.75;;;30.40;70.00;;;;;;4423683;32;20464;-68
2021/09/10 09:58:22;;;;;;;10.50;5.70;;;31.00;68.70;;;;;;4423128;32;20173;-69
2021/09/10 10:00:59;;;;;;;9.65;6.00;;;30.00;68.50;;;;;;4425622;32;20187;-68
2021/09/10 10:03:44;;;;;;;10.27;6.03;;;29.90;70.70;;;;;;4417648;32;20135;-69
2021/09/10 10:06:32;;;;;;;9.68;5.45;;;30.40;68.10;;;;;;4423442;32;20149;-69
2021/09/10 10:09:36;;;;;;;9.98;5.45;;;30.90;66.30;;;;;;4423517;32;20419;-70
2021/09/10 10:12:22;;;;;;;10.98;5.70;;;31.30;65.60;;;;;;4423216;32;20165;-70
2021/09/10 10:15:42;;;;;;;10.10;5.37;;;31.00;62.30;;;;;;4423328;32;20150;-70
2021/09/10 10:18:40;;;;;;;9.77;5.45;;;31.20;64.50;;;;;;4415840;32;20174;-69
2021/09/10 10:21:18;;;;;;;9.75;5.47;;;31.70;62.80;;;;;;4423360;32;20238;-70
2021/09/10 10:23:59;;;;;;;8.02;5.62;;;32.40;60.90;;;;;;4423321;32;20151;-69
2021/09/10 10:26:46;;;;;;;11.25;5.70;;;32.70;59.30;;;;;;4425206;32;20172;-70
2021/09/10 10:30:10;;;;;;;12.30;5.60;;;33.00;59.40;;;;;;4424911;32;20419;-69
2021/09/10 10:32:42;;;;;;;9.68;5.90;;;32.70;58.40;;;;;;4423097;32;20205;-69
2021/09/10 10:35:48;;;;;;;10.55;5.75;;;33.00;57.90;;;;;;4425095;32;20545;-68
2021/09/10 10:38:25;;;;;;;24.50;8.52;;;33.50;56.90;;;;;;4422716;32;20269;-68
2021/09/10 10:41:18;;;;;;;10.45;5.72;;;33.80;56.00;;;;;;4425167;32;20477;-68
2021/09/10 10:43:59;;;;;;;15.13;5.35;;;34.00;55.20;;;;;;4424921;32;20224;-69
2021/09/10 10:46:37;;;;;;;8.88;5.05;;;34.00;55.60;;;;;;4424907;32;20131;-69
2021/09/10 10:49:15;;;;;;;11.90;5.93;;;34.00;53.90;;;;;;4424796;32;20135;-69
2021/09/10 10:51:50;;;;;;;7.60;4.95;;;34.20;54.90;;;;;;4424818;32;20139;-68
2021/09/10 10:54:31;;;;;;;6.93;5.22;;;34.30;53.90;;;;;;4424728;32;20208;-70
2021/09/10 10:57:30;;;;;;;8.43;5.05;;;34.10;54.10;;;;;;4423287;32;20155;-69
2021/09/10 11:00:33;;;;;;;10.68;5.30;;;34.10;52.50;;;;;;4423114;32;20159;-68
2021/09/10 11:03:38;;;;;;;10.45;5.22;;;33.80;52.40;;;;;;4422728;32;20199;-69
2021/09/10 11:06:37;;;;;;;10.98;5.07;;;34.10;54.10;;;;;;4422804;32;20420;-69
2021/09/10 11:09:17;;;;;;;7.85;5.12;;;34.90;53.50;;;;;;4424548;32;20151;-69
2021/09/10 11:14:59;;;;;;;13.05;4.87;;;35.60;51.10;;;;;;4424701;32;20150;-69
2021/09/10 11:18:08;;;;;;;6.70;4.53;;;35.30;49.40;;;;;;4423799;32;20140;-68
2021/09/10 11:20:44;;;;;;;11.95;4.80;;;35.60;49.70;;;;;;4424693;32;20124;-68
2021/09/10 11:23:37;;;;;;;9.63;4.62;;;35.40;48.70;;;;;;4375957;32;20227;-69
2021/09/10 11:26:13;;;;;;;8.60;5.03;;;35.70;49.40;;;;;;4375290;32;20551;-69
2021/09/10 11:28:50;;;;;;;6.80;4.60;;;35.80;48.40;;;;;;4377331;32;20211;-69
2021/09/10 11:31:51;;;;;;;7.87;4.45;;;36.60;48.40;;;;;;4379911;32;20170;-70
2021/09/10 11:34:59;;;;;;;7.95;4.15;;;38.00;46.10;;;;;;4379543;32;20420;-69
2021/09/10 11:37:41;;;;;;;7.53;4.20;;;38.50;43.00;;;;;;4319808;33;20583;-69
2021/09/10 11:40:14;;;;;;;5.20;3.75;;;39.10;42.40;;;;;;4317145;33;20183;-70
2021/09/10 11:43:07;;;;;;;12.18;4.12;;;39.90;41.30;;;;;;4316288;33;20497;-70
2021/09/10 11:48:53;;;;;;;5.50;3.67;;;40.10;38.50;;;;;;4318708;33;20157;-70
2021/09/10 11:51:46;;;;;;;7.57;3.45;;;39.80;37.90;;;;;;4319181;33;20249;-70
2021/09/10 11:54:47;;;;;;;5.62;3.30;;;39.60;38.60;;;;;;4289604;33;20249;-69
2021/09/10 11:57:45;;;;;;;8.63;3.47;;;40.30;37.60;;;;;;4291098;33;20272;-69
2021/09/10 12:00:34;;;;;;;10.25;3.45;;;40.10;36.10;;;;;;4301137;33;20480;-70
2021/09/10 12:03:17;;;;;;;8.95;3.50;;;40.70;36.00;;;;;;4320418;33;20205;-70
2021/09/10 12:06:03;;;;;;;7.60;3.50;;;41.50;35.30;;;;;;4319277;33;20141;-70
2021/09/10 12:08:55;;;;;;;4.00;3.10;;;41.60;35.50;;;;;;4318271;33;20173;-70
2021/09/10 12:12:03;;;;;;;5.45;3.25;;;41.10;33.90;;;;;;4318843;33;20184;-71
2021/09/10 12:15:08;;;;;;;6.37;3.25;;;41.40;34.10;;;;;;4408151;32;20409;-70
2021/09/10 12:17:47;;;;;;;6.68;3.30;;;40.80;33.90;;;;;;4407508;32;20158;-69
2021/09/10 12:20:56;;;;;;;6.47;3.08;;;40.00;34.40;;;;;;4409550;32;20204;-69
2021/09/10 12:23:41;;;;;;;4.22;3.22;;;40.30;35.10;;;;;;4409705;32;20147;-70
2021/09/10 12:26:23;;;;;;;9.73;3.58;;;40.70;34.50;;;;;;4409636;32;20173;-70
2021/09/10 12:29:04;;;;;;;53.42;9.48;;;40.90;34.20;;;;;;4407537;32;20143;-70
2021/09/10 12:31:30;;;;;;;61.63;7.80;;;40.90;35.60;;;;;;4416710;32;20198;-71
2021/09/10 12:34:01;;;;;;;6.12;3.00;;;40.90;33.40;;;;;;4426703;32;20131;-69
2021/09/10 12:36:35;;;;;;;8.80;2.70;;;40.70;32.60;;;;;;4422715;32;20170;-70
2021/09/10 12:39:07;;;;;;;8.00;3.17;;;40.00;32.80;;;;;;4418870;32;20215;-70
2021/09/10 12:41:58;;;;;;;4.18;2.72;;;39.80;33.40;;;;;;4420333;32;20151;-71
2021/09/10 12:44:37;;;;;;;4.05;2.90;;;39.90;33.60;;;;;;4412976;32;20242;-71
2021/09/10 12:47:22;;;;;;;;;;;;;;;;;;;;;
2021/09/10 12:50:08;;;;;;;4.57;2.85;;;39.70;32.90;;;;;;4377076;32;20168;-70
2021/09/10 12:52:35;;;;;;;4.32;3.00;;;38.60;34.40;;;;;;4377716;32;20193;-71
2021/09/10 12:55:08;;;;;;;6.72;3.10;;;38.10;35.60;;;;;;4376919;32;20163;-71
2021/09/10 12:57:39;;;;;;;6.05;3.60;;;37.60;36.40;;;;;;4376863;32;20189;-70
2021/09/10 13:00:21;;;;;;;5.37;3.00;;;36.30;38.60;;;;;;4376840;32;20180;-71
2021/09/10 13:02:48;;;;;;;6.55;3.35;;;36.50;39.10;;;;;;4378159;32;20178;-71
2021/09/10 13:05:21;;;;;;;7.00;3.37;;;36.40;38.40;;;;;;4386109;32;20239;-71
2021/09/10 13:08:07;;;;;;;6.15;3.10;;;35.80;38.60;;;;;;4392925;32;20223;-71
2021/09/10 13:10:40;;;;;;;6.03;3.20;;;34.80;39.20;;;;;;4391468;32;20144;-71
2021/09/10 13:13:28;;;;;;;6.57;3.30;;;33.10;41.00;;;;;;4390971;32;20160;-71
2021/09/10 13:16:04;;;;;;;7.32;3.10;;;32.40;42.60;;;;;;4391496;32;20151;-70
2021/09/10 13:18:36;;;;;;;8.30;3.70;;;31.40;43.30;;;;;;4391939;32;20136;-71
2021/09/10 13:21:24;;;;;;;5.57;3.40;;;31.00;44.10;;;;;;4411187;32;20140;-70
2021/09/10 13:24:35;;;;;;;6.18;3.12;;;30.30;44.90;;;;;;4425491;32;20124;-70
2021/09/10 13:27:24;;;;;;;9.38;3.50;;;29.60;46.80;;;;;;4423604;32;20169;-70
2021/09/10 13:30:23;;;;;;;6.80;3.50;;;29.20;48.30;;;;;;4424020;32;20174;-71
2021/09/10 13:33:05;;;;;;;6.72;3.20;;;28.70;48.90;;;;;;4424289;32;20128;-70
2021/09/10 13:36:04;;;;;;;7.85;3.15;;;28.30;49.10;;;;;;4424618;32;20201;-70
2021/09/10 13:38:37;;;;;;;6.75;3.28;;;28.10;49.60;;;;;;4419877;32;20404;-70
2021/09/10 13:41:04;;;;;;;6.72;3.30;;;28.00;50.40;;;;;;4423833;32;20181;-71
2021/09/10 13:43:31;;;;;;;6.50;3.30;;;27.80;50.20;;;;;;4423725;32;20154;-70
2021/09/10 13:45:57;;;;;;;8.25;3.70;;;27.80;50.30;;;;;;4423497;32;20179;-70
2021/09/10 13:48:24;;;;;;;7.65;3.50;;;27.70;49.60;;;;;;4423578;32;20153;-70
2021/09/10 13:50:51;;;;;;;9.07;3.30;;;27.60;50.40;;;;;;4425104;32;20153;-70
2021/09/10 13:53:18;;;;;;;5.60;3.22;;;27.50;51.20;;;;;;4424401;32;20131;-70
2021/09/10 13:55:45;;;;;;;4.90;3.28;;;27.70;52.10;;;;;;4425368;32;20217;-70
2021/09/10 13:58:11;;;;;;;6.57;3.90;;;27.50;51.10;;;;;;4425174;32;20402;-68
2021/09/10 14:00:38;;;;;;;6.28;3.37;;;27.40;51.70;;;;;;4423188;32;20376;-70
2021/09/10 14:03:05;;;;;;;4.60;3.30;;;27.40;51.90;;;;;;4425152;32;20229;-69
2021/09/10 14:05:33;;;;;;;8.75;3.60;;;27.70;51.40;;;;;;4423540;32;20123;-69
2021/09/10 14:08:00;;;;;;;6.57;3.37;;;28.40;50.80;;;;;;4422589;32;20173;-69
2021/09/10 14:10:27;;;;;;;7.65;3.45;;;28.10;51.10;;;;;;4423293;32;20139;-70
2021/09/10 14:12:54;;;;;;;8.10;3.50;;;27.70;51.70;;;;;;4425129;32;20143;-69
2021/09/10 14:15:21;;;;;;;10.95;4.00;;;27.40;51.70;;;;;;4423777;32;20151;-76
2021/09/10 14:17:48;;;;;;;9.45;3.85;;;27.10;52.30;;;;;;4421304;32;20147;-70